Time;durP1;ratioP1;P1;durP2;ratioP2;P2;SDS_P1;SDS_P2;PMS_P1;PMS_P2;Temp;Humidity;BMP_temperature;BMP_pressure;BME280_temperature;BME280_humidity;BME280_pressure;Samples;Min_cycle;Max_cycle;Signal;HPM_P1;HPM_P2
2023/12/14 00:02:30;;;;;;;;;;;;;;;2.83;100.00;99987.79;105064;1285;61179;-59
2023/12/14 00:05:16;;;;;;;;;;;;;;;2.80;100.00;99987.59;105136;1286;74074;-59
2023/12/14 00:08:03;;;;;;;;;;;;;;;2.76;100.00;99986.04;105167;1286;66267;-59
2023/12/14 00:10:50;;;;;;;;;;;;;;;2.73;100.00;99989.42;106490;1288;71432;-60
2023/12/14 00:13:36;;;;;;;;;;;;;;;2.72;100.00;99991.63;106479;1289;59248;-60
2023/12/14 00:16:22;;;;;;;;;;;;;;;2.70;100.00;99998.43;106481;1286;58895;-60
2023/12/14 00:19:08;;;;;;;;;;;;;;;2.70;100.00;99997.74;105548;1290;74805;-59
2023/12/14 00:21:54;;;;;;;;;;;;;;;2.68;100.00;100002.50;105156;1286;67230;-60
2023/12/14 00:24:40;;;;;;;;;;;;;;;2.67;100.00;100003.86;105118;1285;72353;-59
2023/12/14 00:27:26;;;;;;;;;;;;;;;2.66;100.00;100008.27;105182;1291;63351;-60
2023/12/14 00:30:13;;;;;;;;;;;;;;;2.66;100.00;100010.66;105159;1288;63391;-58
2023/12/14 00:32:59;;;;;;;;;;;;;;;2.65;100.00;100012.02;105200;1285;75458;-58
2023/12/14 00:35:45;;;;;;;;;;;;;;;2.63;100.00;100010.13;105119;1288;70015;-59
2023/12/14 00:38:32;;;;;;;;;;;;;;;2.63;100.00;100009.45;105096;1286;71222;-59
2023/12/14 00:41:18;;;;;;;;;;;;;;;2.61;100.00;100011.30;105145;1291;61169;-59
2023/12/14 00:44:04;;;;;;;;;;;;;;;2.61;100.00;100016.58;105148;1285;63044;-60
2023/12/14 00:46:50;;;;;;;;;;;;;;;2.59;100.00;100017.95;105165;1285;73180;-59
2023/12/14 00:49:37;;;;;;;;;;;;;;;2.57;100.00;100020.49;105137;1285;67259;-59
2023/12/14 00:52:23;;;;;;;;;;;;;;;2.56;100.00;100021.67;105166;1285;71376;-60
2023/12/14 00:55:09;;;;;;;;;;;;;;;2.56;100.00;100026.11;105204;1285;61310;-59
2023/12/14 00:57:55;;;;;;;;;;;;;;;2.56;100.00;100028.83;105166;1285;62266;-59
2023/12/14 01:00:42;;;;;;;;;;;;;;;2.54;100.00;100035.11;105097;1288;73345;-60
2023/12/14 01:03:28;;;;;;;;;;;;;;;2.52;100.00;100041.89;105201;1286;67284;-59
2023/12/14 01:06:15;;;;;;;;;;;;;;;2.49;100.00;100047.15;105145;1289;73940;-59
2023/12/14 01:09:01;;;;;;;;;;;;;;;2.48;100.00;100055.30;105201;1285;61177;-59
2023/12/14 01:11:47;;;;;;;;;;;;;;;2.46;100.00;100056.14;105189;1285;61285;-60
2023/12/14 01:14:34;;;;;;;;;;;;;;;2.47;100.00;100058.70;105253;1285;74411;-59
2023/12/14 01:17:20;;;;;;;;;;;;;;;2.48;100.00;100060.58;105184;1285;68697;-59
2023/12/14 01:20:07;;;;;;;;;;;;;;;2.48;100.00;100060.92;105193;1285;71257;-60
2023/12/14 01:22:53;;;;;;;;;;;;;;;2.48;100.00;100066.87;106522;1285;59009;-60
2023/12/14 01:25:39;;;;;;;;;;;;;;;2.46;100.00;100067.70;105497;1286;61255;-59
2023/12/14 01:28:25;;;;;;;;;;;;;;;2.44;100.00;100068.04;105176;1285;73302;-59
2023/12/14 01:31:12;;;;;;;;;;;;;;;2.44;100.00;100073.48;105124;1285;69950;-60
2023/12/14 01:33:58;;;;;;;;;;;;;;;2.46;100.00;100081.15;105081;1285;71242;-59
2023/12/14 01:36:44;;;;;;;;;;;;;;;2.46;100.00;100075.54;105189;1285;61282;-60
2023/12/14 01:39:30;;;;;;;;;;;;;;;2.45;100.00;100082.16;105179;1285;61511;-58
2023/12/14 01:42:17;;;;;;;;;;;;;;;2.43;100.00;100079.23;105184;1285;73142;-60
2023/12/14 01:45:04;;;;;;;;;;;;;;;2.43;100.00;100078.73;105149;1288;67419;-59
2023/12/14 01:47:50;;;;;;;;;;;;;;;2.41;100.00;100076.34;105163;1285;71264;-59
2023/12/14 01:50:36;;;;;;;;;;;;;;;2.39;100.00;100079.05;105154;1286;61251;-59
2023/12/14 01:53:23;;;;;;;;;;;;;;;2.36;100.00;100077.48;105166;1285;61886;-60
2023/12/14 01:56:09;;;;;;;;;;;;;;;2.33;100.00;100076.61;105171;1285;75928;-59
2023/12/14 01:58:55;;;;;;;;;;;;;;;2.32;100.00;100074.39;105162;1285;69097;-60
2023/12/14 02:01:42;;;;;;;;;;;;;;;2.32;100.00;100076.61;105107;1285;71168;-59
2023/12/14 02:04:29;;;;;;;;;;;;;;;2.29;100.00;100076.41;105101;1290;62276;-59
2023/12/14 02:07:15;;;;;;;;;;;;;;;2.28;100.00;100077.08;105118;1290;61241;-59
2023/12/14 02:10:01;;;;;;;;;;;;;;;2.27;100.00;100078.43;105066;1288;76084;-58
2023/12/14 02:12:47;;;;;;;;;;;;;;;2.27;100.00;100080.65;105136;1285;68077;-59
2023/12/14 02:15:33;;;;;;;;;;;;;;;2.25;100.00;100082.14;105116;1290;73264;-59
2023/12/14 02:18:20;;;;;;;;;;;;;;;2.25;100.00;100083.02;105121;1286;61228;-60
2023/12/14 02:21:06;;;;;;;;;;;;;;;2.25;100.00;100082.32;105192;1285;61484;-60
2023/12/14 02:23:52;;;;;;;;;;;;;;;2.26;100.00;100087.77;105135;1286;76334;-60
2023/12/14 02:26:38;;;;;;;;;;;;;;;2.25;100.00;100085.55;105160;1286;67824;-59
2023/12/14 02:29:25;;;;;;;;;;;;;;;2.22;100.00;100085.70;105086;1285;71439;-60
2023/12/14 02:32:11;;;;;;;;;;;;;;;2.20;100.00;100090.45;105171;1286;61342;-59
2023/12/14 02:34:57;;;;;;;;;;;;;;;2.19;100.00;100091.27;105091;1285;61120;-59
2023/12/14 02:37:43;;;;;;;;;;;;;;;2.17;100.00;100096.54;105118;1286;74023;-59
2023/12/14 02:40:30;;;;;;;;;;;;;;;2.16;100.00;100105.02;105109;1288;67202;-60
2023/12/14 02:43:16;;;;;;;;;;;;;;;2.16;100.00;100105.87;105174;1290;71377;-60
2023/12/14 02:46:02;;;;;;;;;;;;;;;2.16;100.00;100111.30;105124;1285;61362;-60
2023/12/14 02:48:49;;;;;;;;;;;;;;;2.15;100.00;100117.08;105144;1285;61726;-58
2023/12/14 02:51:35;;;;;;;;;;;;;;;2.14;100.00;100122.16;105152;1286;73268;-60
2023/12/14 02:54:21;;;;;;;;;;;;;;;2.13;100.00;100124.20;105195;1286;73199;-60
2023/12/14 02:57:07;;;;;;;;;;;;;;;2.13;100.00;100127.77;105133;1289;74014;-60
2023/12/14 02:59:54;;;;;;;;;;;;;;;2.12;100.00;100135.92;105144;1285;61353;-60
2023/12/14 03:02:40;;;;;;;;;;;;;;;2.10;100.00;100137.27;105094;1285;61742;-59
2023/12/14 03:05:26;;;;;;;;;;;;;;;2.10;100.00;100139.14;105136;1286;73519;-59
2023/12/14 03:08:12;;;;;;;;;;;;;;;2.10;100.00;100142.36;105705;1288;67702;-60
2023/12/14 03:11:00;;;;;;;;;;;;;;;2.10;100.00;100146.09;105095;1290;74003;-59
2023/12/14 03:13:46;;;;;;;;;;;;;;;2.08;100.00;100149.16;105111;1285;61170;-60
2023/12/14 03:16:32;;;;;;;;;;;;;;;2.06;100.00;100150.16;105179;1285;61364;-59
2023/12/14 03:19:18;;;;;;;;;;;;;;;2.05;100.00;100149.98;104989;1286;76033;-59
2023/12/14 03:22:05;;;;;;;;;;;;;;;2.04;100.00;100154.91;105181;1285;67410;-59
2023/12/14 03:24:51;;;;;;;;;;;;;;;2.04;100.00;100154.90;105125;1286;74754;-59
2023/12/14 03:27:37;;;;;;;;;;;;;;;2.03;100.00;100163.73;105144;1286;61241;-59
2023/12/14 03:30:23;;;;;;;;;;;;;;;2.03;100.00;100165.60;105174;1285;61302;-59
2023/12/14 03:33:10;;;;;;;;;;;;;;;2.03;100.00;100168.33;105098;1288;76026;-60
2023/12/14 03:35:56;;;;;;;;;;;;;;;2.05;100.00;100172.42;105180;1285;67868;-59
2023/12/14 03:38:42;;;;;;;;;;;;;;;2.05;100.00;100176.34;105107;1286;71350;-59
2023/12/14 03:41:29;;;;;;;;;;;;;;;2.06;100.00;100182.30;105110;1291;60091;-59
2023/12/14 03:44:15;;;;;;;;;;;;;;;2.04;100.00;100183.98;105084;1286;61158;-59
2023/12/14 03:47:01;;;;;;;;;;;;;;;2.05;100.00;100183.81;105104;1286;75486;-59
2023/12/14 03:49:49;;;;;;;;;;;;;;;2.04;100.00;100189.76;105132;1288;68100;-59
2023/12/14 03:52:35;;;;;;;;;;;;;;;2.02;100.00;100194.33;105063;1290;75240;-59
2023/12/14 03:55:21;;;;;;;;;;;;;;;2.00;100.00;100196.00;105191;1285;61104;-60
2023/12/14 03:58:08;;;;;;;;;;;;;;;2.00;100.00;100198.55;105085;1286;61871;-59
2023/12/14 04:00:54;;;;;;;;;;;;;;;1.98;100.00;100197.84;105106;1287;73217;-59
2023/12/14 04:03:40;;;;;;;;;;;;;;;1.95;100.00;100198.84;105113;1285;69996;-60
2023/12/14 04:06:26;;;;;;;;;;;;;;;1.92;100.00;100206.95;105116;1286;72185;-60
2023/12/14 04:09:12;;;;;;;;;;;;;;;1.90;100.00;100212.36;105118;1288;60372;-59
2023/12/14 04:11:59;;;;;;;;;;;;;;;1.90;100.00;100213.38;105144;1286;61034;-59
2023/12/14 04:14:46;;;;;;;;;;;;;;;1.87;100.00;100217.60;105168;1285;73235;-58
2023/12/14 04:17:33;;;;;;;;;;;;;;;1.87;100.00;100217.76;105099;1285;69924;-59
2023/12/14 04:20:19;;;;;;;;;;;;;;;1.87;100.00;100221.50;105101;1286;70618;-59
2023/12/14 04:23:05;;;;;;;;;;;;;;;1.85;100.00;100223.17;105152;1286;61211;-58
2023/12/14 04:25:52;;;;;;;;;;;;;;;1.83;100.00;100220.27;105175;1285;59315;-59
2023/12/14 04:28:38;;;;;;;;;;;;;;;1.83;100.00;100221.12;105124;1285;75878;-59
2023/12/14 04:31:24;;;;;;;;;;;;;;;1.82;100.00;100217.70;105231;1286;69152;-58
2023/12/14 04:34:15;;;;;;;;;;;;;;;1.81;100.00;100216.84;105200;1286;71134;-59
2023/12/14 04:37:01;;;;;;;;;;;;;;;1.81;100.00;100216.15;105080;1285;61238;-58
2023/12/14 04:39:48;;;;;;;;;;;;;;;1.82;100.00;100218.04;105138;1286;61179;-59
2023/12/14 04:42:34;;;;;;;;;;;;;;;1.81;100.00;100222.45;105189;1286;75154;-59
2023/12/14 04:45:20;;;;;;;;;;;;;;;1.81;100.00;100223.12;105119;1286;67277;-58
2023/12/14 04:48:06;;;;;;;;;;;;;;;1.80;100.00;100225.65;105156;1290;71431;-59
2023/12/14 04:50:53;;;;;;;;;;;;;;;1.76;100.00;100228.15;105125;1285;61498;-59
2023/12/14 04:53:39;;;;;;;;;;;;;;;1.73;100.00;100233.55;105116;1285;61420;-59
2023/12/14 04:56:25;;;;;;;;;;;;;;;1.73;100.00;100236.77;105138;1285;73296;-59
2023/12/14 04:59:12;;;;;;;;;;;;;;;1.72;100.00;100236.59;105158;1285;69004;-58
2023/12/14 05:01:58;;;;;;;;;;;;;;;1.69;100.00;100241.14;105045;1287;71291;-59
2023/12/14 05:04:44;;;;;;;;;;;;;;;1.69;100.00;100247.08;105092;1291;61244;-58
2023/12/14 05:07:30;;;;;;;;;;;;;;;1.69;100.00;100248.45;105113;1285;61257;-59
2023/12/14 05:10:16;;;;;;;;;;;;;;;1.71;100.00;100254.26;105073;1286;73814;-58
2023/12/14 05:13:03;;;;;;;;;;;;;;;1.72;100.00;100256.14;105141;1285;67313;-59
2023/12/14 05:15:49;;;;;;;;;;;;;;;1.70;100.00;100259.48;105046;1291;71349;-59
2023/12/14 05:18:35;;;;;;;;;;;;;;;1.69;100.00;100262.20;105129;1286;61172;-59
2023/12/14 05:21:21;;;;;;;;;;;;;;;1.67;100.00;100268.64;105081;1286;61343;-59
2023/12/14 05:24:08;;;;;;;;;;;;;;;1.67;100.00;100269.64;105088;1291;75993;-59
2023/12/14 05:26:54;;;;;;;;;;;;;;;1.70;100.00;100276.48;105101;1286;68300;-59
2023/12/14 05:29:40;;;;;;;;;;;;;;;1.70;100.00;100283.30;105035;1286;74077;-59
2023/12/14 05:32:26;;;;;;;;;;;;;;;1.71;100.00;100286.88;105085;1285;61468;-58
2023/12/14 05:35:13;;;;;;;;;;;;;;;1.69;100.00;100289.05;105157;1290;61209;-58
2023/12/14 05:37:59;;;;;;;;;;;;;;;1.69;100.00;100293.63;105165;1286;75289;-59
2023/12/14 05:40:45;;;;;;;;;;;;;;;1.67;100.00;100301.94;105140;1290;67234;-58
2023/12/14 05:43:31;;;;;;;;;;;;;;;1.65;100.00;100303.61;105654;1287;71384;-60
2023/12/14 05:46:21;;;;;;;;;;;;;;;1.64;100.00;100304.10;105085;1287;61276;-59
2023/12/14 05:49:08;;;;;;;;;;;;;;;1.64;100.00;100312.41;105183;1286;61725;-59
2023/12/14 05:51:54;;;;;;;;;;;;;;;1.64;100.00;100315.83;105105;1285;74091;-59
2023/12/14 05:54:40;;;;;;;;;;;;;;;1.65;100.00;100321.11;105097;1290;66149;-59
2023/12/14 05:57:27;;;;;;;;;;;;;;;1.65;100.00;100325.52;105143;1286;72986;-59
2023/12/14 06:00:13;;;;;;;;;;;;;;;1.63;100.00;100333.14;105045;1286;61159;-59
2023/12/14 06:02:59;;;;;;;;;;;;;;;1.63;100.00;100333.64;105126;1291;59815;-59
2023/12/14 06:05:45;;;;;;;;;;;;;;;1.62;100.00;100336.02;105002;1288;77356;-59
2023/12/14 06:08:32;;;;;;;;;;;;;;;1.62;100.00;100338.40;105077;1285;67283;-59
2023/12/14 06:11:19;;;;;;;;;;;;;;;1.64;100.00;100340.61;105184;1285;71225;-61
2023/12/14 06:14:06;;;;;;;;;;;;;;;1.64;100.00;100345.89;105022;1291;60152;-59
2023/12/14 06:16:52;;;;;;;;;;;;;;;1.65;100.00;100352.54;105137;1291;61192;-58
2023/12/14 06:19:38;;;;;;;;;;;;;;;1.67;100.00;100355.12;105195;1286;77651;-58
2023/12/14 06:22:24;;;;;;;;;;;;;;;1.68;100.00;100363.95;105086;1288;67434;-58
2023/12/14 06:25:11;;;;;;;;;;;;;;;1.69;100.00;100364.98;105060;1289;71259;-57
2023/12/14 06:27:57;;;;;;;;;;;;;;;1.70;100.00;100368.73;105110;1286;61123;-57
2023/12/14 06:30:43;;;;;;;;;;;;;;;1.69;100.00;100373.15;105104;1291;61135;-59
2023/12/14 06:33:31;;;;;;;;;;;;;;;1.69;100.00;100374.85;105118;1288;74864;-58
2023/12/14 06:36:20;;;;;;;;;;;;;;;1.68;100.00;100375.68;105112;1288;67240;-59
2023/12/14 06:39:07;;;;;;;;;;;;;;;1.67;100.00;100384.00;105174;1291;71150;-59
2023/12/14 06:41:53;;;;;;;;;;;;;;;1.67;100.00;100387.73;105072;1289;61196;-59
2023/12/14 06:44:39;;;;;;;;;;;;;;;1.69;100.00;100394.22;105132;1285;62646;-59
2023/12/14 06:47:26;;;;;;;;;;;;;;;1.70;100.00;100399.52;105051;1290;75960;-59
2023/12/14 06:50:13;;;;;;;;;;;;;;;1.70;100.00;100406.13;105117;1285;69180;-59
2023/12/14 06:52:59;;;;;;;;;;;;;;;1.71;100.00;100408.52;105167;1291;71574;-59
2023/12/14 06:55:45;;;;;;;;;;;;;;;1.71;100.00;100410.23;105100;1289;61442;-59
2023/12/14 06:58:32;;;;;;;;;;;;;;;1.73;100.00;100418.08;105029;1291;61282;-58
2023/12/14 07:01:18;;;;;;;;;;;;;;;1.74;100.00;100423.02;105117;1290;76366;-58
2023/12/14 07:04:04;;;;;;;;;;;;;;;1.76;100.00;100424.92;105050;1286;67039;-59
2023/12/14 07:06:51;;;;;;;;;;;;;;;1.76;100.00;100425.45;105094;1291;74038;-59
2023/12/14 07:09:38;;;;;;;;;;;;;;;1.79;100.00;100426.68;105083;1286;61158;-59
2023/12/14 07:12:24;;;;;;;;;;;;;;;1.80;100.00;100431.11;104982;1289;61180;-59
2023/12/14 07:15:10;;;;;;;;;;;;;;;1.79;100.00;100430.41;105039;1287;74187;-59
2023/12/14 07:17:57;;;;;;;;;;;;;;;1.80;100.00;100429.91;104987;1290;69146;-59
2023/12/14 07:20:43;;;;;;;;;;;;;;;1.79;100.00;100430.59;104995;1287;71100;-59
2023/12/14 07:23:29;;;;;;;;;;;;;;;1.80;100.00;100431.63;104970;1292;61819;-59
2023/12/14 07:26:15;;;;;;;;;;;;;;;1.81;100.00;100433.52;105024;1292;61379;-59
2023/12/14 07:29:01;;;;;;;;;;;;;;;1.83;100.00;100437.63;105071;1287;77287;-59
2023/12/14 07:31:48;;;;;;;;;;;;;;;1.83;100.00;100438.80;105079;1291;68799;-59
2023/12/14 07:34:34;;;;;;;;;;;;;;;1.83;100.00;100440.50;105000;1286;71250;-59
2023/12/14 07:37:20;;;;;;;;;;;;;;;1.83;100.00;100443.39;104978;1287;61234;-59
2023/12/14 07:40:07;;;;;;;;;;;;;;;1.84;100.00;100451.39;105061;1286;61144;-59
2023/12/14 07:42:53;;;;;;;;;;;;;;;1.84;100.00;100456.85;104946;1286;73153;-59
2023/12/14 07:45:39;;;;;;;;;;;;;;;1.85;100.00;100458.39;104997;1286;67927;-58
2023/12/14 07:48:26;;;;;;;;;;;;;;;1.83;100.00;100462.09;105020;1286;71723;-59
2023/12/14 07:51:13;;;;;;;;;;;;;;;1.83;100.00;100468.03;105048;1288;62193;-57
2023/12/14 07:53:59;;;;;;;;;;;;;;;1.85;100.00;100473.34;105076;1287;61150;-59
2023/12/14 07:56:45;;;;;;;;;;;;;;;1.89;100.00;100478.34;105024;1287;73697;-59
2023/12/14 07:59:32;;;;;;;;;;;;;;;1.92;100.00;100487.23;105060;1286;68023;-59
2023/12/14 08:02:18;;;;;;;;;;;;;;;1.92;100.00;100496.23;105107;1286;71232;-59
2023/12/14 08:05:04;;;;;;;;;;;;;;;1.93;100.00;100502.55;105036;1287;61176;-59
2023/12/14 08:07:52;;;;;;;;;;;;;;;1.93;100.00;100510.37;106380;1287;59135;-60
2023/12/14 08:10:38;;;;;;;;;;;;;;;1.93;100.00;100513.92;106471;1285;74557;-60
2023/12/14 08:13:24;;;;;;;;;;;;;;;1.94;100.00;100517.02;106490;1286;67487;-60
2023/12/14 08:16:11;;;;;;;;;;;;;;;1.95;100.00;100520.09;106367;1286;71343;-60
2023/12/14 08:18:57;;;;;;;;;;;;;;;1.97;100.00;100524.20;106462;1285;58847;-61
2023/12/14 08:21:43;;;;;;;;;;;;;;;1.99;100.00;100529.34;106470;1286;58970;-60
2023/12/14 08:24:29;;;;;;;;;;;;;;;2.03;100.00;100532.30;106446;1286;74534;-60
2023/12/14 08:27:14;;;;;;;;;;;;;;;2.06;100.00;100541.54;106420;1286;67440;-60
2023/12/14 08:30:00;;;;;;;;;;;;;;;2.10;100.00;100548.20;106476;1288;73251;-60
2023/12/14 08:32:46;;;;;;;;;;;;;;;2.15;100.00;100549.65;106412;1286;58799;-60
2023/12/14 08:35:32;;;;;;;;;;;;;;;2.20;100.00;100555.84;106479;1285;58754;-60
2023/12/14 08:38:18;;;;;;;;;;;;;;;2.26;100.00;100560.56;106482;1286;73881;-60
2023/12/14 08:41:04;;;;;;;;;;;;;;;2.32;100.00;100569.31;106404;1286;67220;-60
2023/12/14 08:43:50;;;;;;;;;;;;;;;2.35;100.00;100569.20;106467;1285;72172;-60
2023/12/14 08:46:43;;;;;;;;;;;;;;;2.39;100.00;100574.20;106409;1286;59189;-60
2023/12/14 08:49:29;;;;;;;;;;;;;;;2.41;100.00;100577.64;106481;1285;59020;-60
2023/12/14 08:52:15;;;;;;;;;;;;;;;2.42;100.00;100586.67;106402;1290;75134;-60
2023/12/14 08:55:02;;;;;;;;;;;;;;;2.43;100.00;100591.44;106437;1289;67487;-60
2023/12/14 08:57:48;;;;;;;;;;;;;;;2.45;100.00;100594.03;106503;1285;71282;-59
2023/12/14 09:00:34;;;;;;;;;;;;;;;2.46;100.00;100596.44;106418;1285;59006;-60
2023/12/14 09:03:20;;;;;;;;;;;;;;;2.51;100.00;100601.79;106481;1289;58864;-59
2023/12/14 09:06:06;;;;;;;;;;;;;;;2.55;100.00;100609.52;106465;1286;74303;-61
2023/12/14 09:08:52;;;;;;;;;;;;;;;2.58;100.00;100618.92;106453;1286;68335;-60
2023/12/14 09:11:38;;;;;;;;;;;;;;;2.61;100.00;100625.41;106393;1285;72336;-60
2023/12/14 09:14:24;;;;;;;;;;;;;;;2.60;100.00;100630.67;106527;1286;59022;-60
2023/12/14 09:17:10;;;;;;;;;;;;;;;2.58;100.00;100631.69;106477;1285;58932;-60
2023/12/14 09:19:56;;;;;;;;;;;;;;;2.59;100.00;100632.39;106430;1287;74121;-60
2023/12/14 09:22:42;;;;;;;;;;;;;;;2.64;100.00;100632.27;106525;1286;68203;-60
2023/12/14 09:25:27;;;;;;;;;;;;;;;2.68;100.00;100628.75;106405;1285;73052;-60
2023/12/14 09:28:13;;;;;;;;;;;;;;;2.70;100.00;100627.24;106485;1286;59319;-60
2023/12/14 09:31:00;;;;;;;;;;;;;;;2.70;100.00;100628.27;106439;1285;59234;-59
2023/12/14 09:33:46;;;;;;;;;;;;;;;2.74;100.00;100631.58;106488;1285;73325;-60
2023/12/14 09:36:31;;;;;;;;;;;;;;;2.77;100.00;100635.03;106495;1286;67439;-59
2023/12/14 09:39:19;;;;;;;;;;;;;;;2.79;100.00;100638.12;106430;1285;72509;-61
2023/12/14 09:42:07;;;;;;;;;;;;;;;2.83;100.00;100643.30;106493;1285;59410;-61
2023/12/14 09:44:53;;;;;;;;;;;;;;;2.86;100.00;100642.33;106484;1286;59461;-60
2023/12/14 09:47:40;;;;;;;;;;;;;;;2.88;100.00;100644.90;106494;1286;73216;-60
2023/12/14 09:50:26;;;;;;;;;;;;;;;2.91;100.00;100647.69;106510;1285;67515;-60
2023/12/14 09:53:12;;;;;;;;;;;;;;;2.96;100.00;100647.42;106459;1288;72229;-60
2023/12/14 09:55:58;;;;;;;;;;;;;;;3.00;100.00;100651.73;106506;1285;59842;-60
2023/12/14 09:58:44;;;;;;;;;;;;;;;3.02;100.00;100655.68;106484;1285;59909;-60
2023/12/14 10:01:29;;;;;;;;;;;;;;;3.03;100.00;100664.55;106508;1286;73224;-60
2023/12/14 10:04:17;;;;;;;;;;;;;;;3.04;100.00;100666.27;106548;1285;66193;-61
2023/12/14 10:07:06;;;;;;;;;;;;;;;3.02;99.95;100667.77;106445;1285;72793;-60
2023/12/14 10:09:55;;;;;;;;;;;;;;;3.07;100.00;100666.32;106538;1286;59289;-60
2023/12/14 10:12:52;;;;;;;;;;;;;;;3.09;100.00;100661.08;106469;1285;58975;-60
2023/12/14 10:15:41;;;;;;;;;;;;;;;3.09;99.81;100659.54;106481;1285;73336;-59
2023/12/14 10:18:29;;;;;;;;;;;;;;;3.14;99.86;100656.86;106494;1285;67348;-60
2023/12/14 10:21:15;;;;;;;;;;;;;;;3.15;99.61;100660.45;106436;1285;72754;-60
2023/12/14 10:24:01;;;;;;;;;;;;;;;3.17;99.65;100662.17;106391;1287;59299;-60
2023/12/14 10:26:48;;;;;;;;;;;;;;;3.19;99.81;100669.37;106483;1285;59276;-60
2023/12/14 10:29:34;;;;;;;;;;;;;;;3.25;99.87;100671.00;106448;1285;74038;-60
2023/12/14 10:32:20;;;;;;;;;;;;;;;3.22;99.03;100666.00;106420;1289;68382;-61
2023/12/14 10:35:06;;;;;;;;;;;;;;;3.16;99.07;100668.13;106473;1287;71303;-61
2023/12/14 10:37:52;;;;;;;;;;;;;;;3.16;99.26;100670.85;106502;1286;58958;-61
2023/12/14 10:40:43;;;;;;;;;;;;;;;3.14;98.99;100683.27;106300;1285;59318;-61
2023/12/14 10:43:29;;;;;;;;;;;;;;;3.17;99.51;100687.58;106441;1286;74181;-61
2023/12/14 10:46:15;;;;;;;;;;;;;;;3.21;99.64;100689.50;106478;1285;68444;-60
2023/12/14 10:49:01;;;;;;;;;;;;;;;3.19;99.10;100690.48;106420;1285;72262;-61
2023/12/14 10:51:48;;;;;;;;;;;;;;;3.20;99.33;100691.36;106499;1285;59364;-61
2023/12/14 10:54:36;;;;;;;;;;;;;;;3.24;99.59;100692.09;106413;1285;61163;-61
2023/12/14 10:57:22;;;;;;;;;;;;;;;3.26;99.74;100694.18;102410;1286;5003382;-61
2023/12/14 11:00:08;;;;;;;;;;;;;;;3.35;99.99;100701.80;106472;1286;67414;-61
2023/12/14 11:02:54;;;;;;;;;;;;;;;3.36;99.43;100706.59;106287;1285;72103;-61
2023/12/14 11:05:40;;;;;;;;;;;;;;;3.44;99.95;100707.21;106410;1285;59012;-61
2023/12/14 11:08:26;;;;;;;;;;;;;;;3.47;99.38;100713.39;106286;1286;232817;-61
2023/12/14 11:11:13;;;;;;;;;;;;;;;3.45;99.16;100715.92;106453;1285;73428;-61
2023/12/14 11:13:59;;;;;;;;;;;;;;;3.44;98.42;100721.86;106418;1288;68526;-61
2023/12/14 11:16:46;;;;;;;;;;;;;;;3.41;98.77;100724.55;106436;1285;71831;-61
2023/12/14 11:19:32;;;;;;;;;;;;;;;3.39;98.11;100726.06;106480;1285;59251;-61
2023/12/14 11:22:27;;;;;;;;;;;;;;;3.40;98.49;100729.48;106472;1286;59311;-61
2023/12/14 11:25:13;;;;;;;;;;;;;;;3.41;98.51;100732.23;106407;1285;74590;-61
2023/12/14 11:28:03;;;;;;;;;;;;;;;3.40;98.44;100737.15;106512;1286;68364;-61
2023/12/14 11:30:49;;;;;;;;;;;;;;;3.42;97.85;100743.48;106453;1285;72120;-61
2023/12/14 11:33:35;;;;;;;;;;;;;;;3.42;98.32;100744.52;106514;1286;59023;-61
2023/12/14 11:36:21;;;;;;;;;;;;;;;3.44;98.62;100745.56;106539;1285;58908;-61
2023/12/14 11:39:07;;;;;;;;;;;;;;;3.38;97.99;100742.90;106449;1285;74390;-60
2023/12/14 11:42:03;;;;;;;;;;;;;;;3.35;97.98;100740.65;106526;1285;67322;-61
2023/12/14 11:44:49;;;;;;;;;;;;;;;3.34;97.28;100745.58;106473;1286;71535;-61
2023/12/14 11:47:35;;;;;;;;;;;;;;;3.29;96.80;100746.35;106437;1287;58995;-61
2023/12/14 11:50:21;;;;;;;;;;;;;;;3.34;98.26;100751.36;106522;1285;59004;-61
2023/12/14 11:53:08;;;;;;;;;;;;;;;3.40;98.54;100751.80;106505;1285;73721;-61
2023/12/14 11:55:54;;;;;;;;;;;;;;;3.37;97.26;100753.29;106432;1285;67611;-61
2023/12/14 11:58:41;;;;;;;;;;;;;;;3.36;97.37;100760.42;106459;1285;71231;-61
2023/12/14 12:01:28;;;;;;;;;;;;;;;3.36;96.72;100764.34;106488;1285;59170;-61
2023/12/14 12:04:14;;;;;;;;;;;;;;;3.37;97.34;100770.84;106483;1286;59777;-61
2023/12/14 12:07:01;;;;;;;;;;;;;;;3.37;97.61;100776.64;106382;1286;73372;-63
2023/12/14 12:09:47;;;;;;;;;;;;;;;3.37;97.78;100784.98;106495;1285;68470;-61
2023/12/14 12:12:34;;;;;;;;;;;;;;;3.38;98.13;100783.63;106414;1285;73441;-62
2023/12/14 12:15:20;;;;;;;;;;;;;;;3.38;98.23;100786.70;106441;1287;58991;-61
2023/12/14 12:18:07;;;;;;;;;;;;;;;3.38;98.54;100789.27;106431;1285;61280;-60
2023/12/14 12:20:53;;;;;;;;;;;;;;;3.36;98.05;100793.48;106453;1286;73191;-61
2023/12/14 12:23:39;;;;;;;;;;;;;;;3.31;97.79;100798.69;106446;1285;67362;-61
2023/12/14 12:26:25;;;;;;;;;;;;;;;3.26;97.68;100800.65;106434;1285;72435;-60
2023/12/14 12:29:10;;;;;;;;;;;;;;;3.24;97.94;100801.29;106462;1285;59239;-61
2023/12/14 12:31:56;;;;;;;;;;;;;;;3.23;97.68;100806.89;106470;1286;60468;-61
2023/12/14 12:34:42;;;;;;;;;;;;;;;3.17;96.90;100807.48;106544;1285;74360;-61
2023/12/14 12:37:28;;;;;;;;;;;;;;;3.10;96.01;100801.08;106509;1285;67080;-60
2023/12/14 12:40:19;;;;;;;;;;;;;;;3.08;97.14;100798.83;106427;1285;72370;-61
2023/12/14 12:43:05;;;;;;;;;;;;;;;3.06;97.27;100798.29;106435;1285;59283;-61
2023/12/14 12:45:51;;;;;;;;;;;;;;;3.04;97.31;100798.59;106444;1285;59012;-61
2023/12/14 12:48:37;;;;;;;;;;;;;;;3.01;97.20;100800.08;106439;1285;73033;-61
2023/12/14 12:51:25;;;;;;;;;;;;;;;2.99;97.10;100807.54;106440;1285;68139;-60
2023/12/14 12:54:11;;;;;;;;;;;;;;;3.03;97.59;100816.80;106466;1285;71253;-60
2023/12/14 12:56:57;;;;;;;;;;;;;;;3.07;98.01;100819.42;105407;1285;61228;-60
2023/12/14 12:59:43;;;;;;;;;;;;;;;3.11;98.22;100828.69;105080;1287;61234;-59
2023/12/14 13:02:30;;;;;;;;;;;;;;;3.12;97.64;100830.40;105094;1285;73166;-59
2023/12/14 13:05:17;;;;;;;;;;;;;;;3.09;97.58;100832.76;105194;1285;71543;-59
2023/12/14 13:08:03;;;;;;;;;;;;;;;3.05;96.49;100829.61;105105;1285;73493;-60
2023/12/14 13:10:51;;;;;;;;;;;;;;;3.02;96.49;100830.23;105052;1285;61375;-60
2023/12/14 13:13:38;;;;;;;;;;;;;;;3.02;97.42;100831.92;105185;1286;61177;-60
2023/12/14 13:16:24;;;;;;;;;;;;;;;3.05;98.03;100832.65;105095;1286;75978;-60
2023/12/14 13:19:10;;;;;;;;;;;;;;;3.04;97.97;100839.81;105058;1285;67299;-60
2023/12/14 13:21:58;;;;;;;;;;;;;;;3.00;97.21;100847.05;104979;1289;73303;-59
2023/12/14 13:24:44;;;;;;;;;;;;;;;2.96;97.60;100855.83;105047;1287;61276;-60
2023/12/14 13:27:31;;;;;;;;;;;;;;;2.92;97.81;100857.45;105045;1285;61333;-59
2023/12/14 13:30:19;;;;;;;;;;;;;;;2.86;96.80;100863.98;105039;1288;73250;-60
2023/12/14 13:33:06;;;;;;;;;;;;;;;2.81;97.24;100866.95;105100;1286;71336;-60
2023/12/14 13:35:52;;;;;;;;;;;;;;;2.76;97.36;100870.92;105056;1286;71262;-60
2023/12/14 13:38:39;;;;;;;;;;;;;;;2.71;97.08;100878.66;105025;1285;61202;-60
2023/12/14 13:41:25;;;;;;;;;;;;;;;2.68;97.34;100882.00;105089;1286;61151;-59
2023/12/14 13:44:11;;;;;;;;;;;;;;;2.66;97.79;100882.83;105141;1285;73271;-59
2023/12/14 13:46:57;;;;;;;;;;;;;;;2.64;97.59;100886.34;105149;1285;67257;-60
2023/12/14 13:49:44;;;;;;;;;;;;;;;2.60;97.60;100884.92;105080;1286;71261;-60
2023/12/14 13:52:30;;;;;;;;;;;;;;;2.57;97.40;100891.34;105073;1285;61129;-59
2023/12/14 13:55:16;;;;;;;;;;;;;;;2.53;97.45;100903.16;105148;1285;61600;-60
2023/12/14 13:58:03;;;;;;;;;;;;;;;2.49;97.04;100907.69;105147;1285;73257;-59
2023/12/14 14:00:49;;;;;;;;;;;;;;;2.46;97.57;100914.59;105116;1285;67222;-60
2023/12/14 14:03:37;;;;;;;;;;;;;;;2.41;97.43;100922.65;105177;1285;72833;-60
2023/12/14 14:06:23;;;;;;;;;;;;;;;2.38;97.29;100928.86;105124;1286;61131;-59
2023/12/14 14:09:10;;;;;;;;;;;;;;;2.34;97.53;100935.93;105087;1290;61699;-60